Time;durP1;ratioP1;P1;durP2;ratioP2;P2;SDS_P1;SDS_P2;PMS_P1;PMS_P2;Temp;Humidity;BMP_temperature;BMP_pressure;BME280_temperature;BME280_humidity;BME280_pressure;Samples;Min_cycle;Max_cycle;Signal;HPM_P1;HPM_P2
2023/05/24 00:00:42;;;;;;;;;2.00;2.00;;;;;15.60;49.25;101790.97;2061488;28;46869;-63
2023/05/24 00:01:42;;;;;;;;;3.00;1.67;;;;;15.59;48.75;101785.63;2073614;28;45973;-63
2023/05/24 00:02:43;;;;;;;;;3.00;3.00;;;;;15.58;49.07;101781.19;2070739;28;46276;-63
2023/05/24 00:03:45;;;;;;;;;2.67;2.33;;;;;15.57;49.06;101787.47;2071365;28;46649;-64
2023/05/24 00:04:48;;;;;;;;;1.75;1.75;;;;;15.55;49.37;101784.84;2070555;28;47120;-64
2023/05/24 00:05:48;;;;;;;;;2.00;1.25;;;;;15.54;48.79;101785.75;2070416;28;45715;-64
2023/05/24 00:06:48;;;;;;;;;3.00;2.00;;;;;15.53;49.21;101777.78;2071170;28;45778;-63
2023/05/24 00:07:49;;;;;;;;;4.00;2.33;;;;;15.53;49.19;101777.78;2070527;28;45528;-62
2023/05/24 00:08:49;;;;;;;;;3.67;3.67;;;;;15.52;48.94;101782.25;2071387;28;45942;-64
2023/05/24 00:09:50;;;;;;;;;2.33;2.33;;;;;15.52;49.23;101781.38;2070483;28;45243;-62
2023/05/24 00:10:50;;;;;;;;;1.00;1.00;;;;;15.51;49.11;101779.59;2071073;28;45669;-62
2023/05/24 00:11:51;;;;;;;;;3.00;3.00;;;;;15.51;49.46;101779.59;2070193;28;46277;-62
2023/05/24 00:12:52;;;;;;;;;2.25;2.25;;;;;15.51;49.15;101774.25;2071278;28;46582;-61
2023/05/24 00:13:52;;;;;;;;;1.00;1.00;;;;;15.50;49.05;101775.16;2070643;28;46464;-63
2023/05/24 00:14:53;;;;;;;;;3.00;3.00;;;;;15.49;49.50;101773.38;2070814;28;46642;-63
2023/05/24 00:15:53;;;;;;;;;4.00;2.67;;;;;15.49;49.20;101768.03;2070612;28;46745;-62
2023/05/24 00:16:53;;;;;;;;;3.33;3.33;;;;;15.49;49.54;101774.28;2070724;28;46621;-64
2023/05/24 00:17:54;;;;;;;;;3.00;3.00;;;;;15.49;49.41;101770.72;2066684;28;46897;-63
2023/05/24 00:18:54;;;;;;;;;4.00;4.00;;;;;15.48;49.46;101774.31;2070515;28;45582;-63
2023/05/24 00:19:55;;;;;;;;;3.67;3.33;;;;;15.48;49.34;101771.63;2070495;28;45054;-64
2023/05/24 00:20:58;;;;;;;;;3.33;3.00;;;;;15.46;49.25;101769.00;2070453;28;46120;-65
2023/05/24 00:21:59;;;;;;;;;3.25;3.25;;;;;15.46;49.28;101768.13;2068848;28;45579;-64
2023/05/24 00:22:59;;;;;;;;;3.00;3.00;;;;;15.45;49.31;101771.72;2070229;28;45782;-64
2023/05/24 00:23:59;;;;;;;;;4.33;3.33;;;;;15.45;49.77;101763.69;2069969;28;46735;-61
2023/05/24 00:25:00;;;;;;;;;4.33;4.33;;;;;15.42;49.38;101761.97;2071618;28;45615;-64
2023/05/24 00:26:00;;;;;;;;;2.00;2.00;;;;;15.41;49.33;101760.22;2072593;28;44964;-63
2023/05/24 00:27:00;;;;;;;;;3.67;3.67;;;;;15.40;49.94;101765.63;2070387;28;45833;-62
2023/05/24 00:28:01;;;;;;;;;3.33;3.00;;;;;15.40;49.52;101766.50;2069716;28;46185;-64
2023/05/24 00:29:02;;;;;;;;;3.00;3.00;;;;;15.41;49.86;101767.38;2070999;28;46137;-64
2023/05/24 00:30:04;;;;;;;;;2.50;1.50;;;;;15.39;49.49;101762.06;2069653;28;46323;-64
2023/05/24 00:31:04;;;;;;;;;3.50;3.00;;;;;15.38;49.39;101757.63;2079172;28;45770;-64
2023/05/24 00:32:05;;;;;;;;;3.33;2.33;;;;;15.37;50.00;101758.53;2069751;28;46428;-64
2023/05/24 00:33:05;;;;;;;;;3.33;2.67;;;;;15.37;50.12;101761.19;2071594;28;46143;-66
2023/05/24 00:34:05;;;;;;;;;2.00;2.00;;;;;15.37;49.74;101763.00;2069705;28;45829;-63
2023/05/24 00:35:06;;;;;;;;;3.33;3.33;;;;;15.36;49.69;101755.91;2071319;28;45923;-63
2023/05/24 00:36:06;;;;;;;;;1.67;1.33;;;;;15.35;49.65;101755.00;2069744;28;46672;-64
2023/05/24 00:37:07;;;;;;;;;5.00;3.67;;;;;15.35;50.05;101751.47;2071365;28;46561;-64
2023/05/24 00:38:07;;;;;;;;;5.33;4.33;;;;;15.35;49.79;101746.13;2068772;28;46444;-64
2023/05/24 00:39:07;;;;;;;;;4.00;2.33;;;;;15.35;49.99;101748.78;2071892;28;44969;-64
2023/05/24 00:40:08;;;;;;;;;7.33;5.00;;;;;15.34;50.16;101749.72;2070101;28;46469;-64
2023/05/24 00:41:10;;;;;;;;;5.00;5.00;;;;;15.32;49.86;101747.06;2070895;28;46023;-64
2023/05/24 00:42:10;;;;;;;;;3.50;3.50;;;;;15.29;49.71;101744.47;2069607;28;47629;-64
2023/05/24 00:43:11;;;;;;;;;3.67;3.00;;;;;15.27;50.16;101746.31;2072584;28;45939;-62
2023/05/24 00:44:11;;;;;;;;;2.67;2.67;;;;;15.24;50.23;101743.69;2073897;28;46382;-63
2023/05/24 00:45:11;;;;;;;;;5.00;5.00;;;;;15.22;50.20;101743.75;2077424;28;45928;-62
2023/05/24 00:46:17;;;;;;;;;3.33;3.33;;;;;15.22;50.42;101745.53;2074460;28;45899;-63
2023/05/24 00:47:17;;;;;;;;;4.50;3.50;;;;;15.21;50.41;101746.47;2070816;28;45773;-63
2023/05/24 00:48:18;;;;;;;;;4.33;3.33;;;;;15.20;50.36;101742.91;2069787;28;46769;-63
2023/05/24 00:49:19;;;;;;;;;3.00;3.00;;;;;15.18;50.54;101747.41;2070672;28;45916;-63
2023/05/24 00:50:19;;;;;;;;;3.00;3.00;;;;;15.18;50.34;101750.09;2072293;28;46680;-61
2023/05/24 00:51:21;;;;;;;;;3.67;3.67;;;;;15.17;50.13;101750.13;2074395;28;46241;-63
2023/05/24 00:52:21;;;;;;;;;6.75;5.25;;;;;15.16;50.59;101748.38;2072921;28;46058;-63
2023/05/24 00:53:22;;;;;;;;;4.00;3.33;;;;;15.16;50.70;101745.69;2074738;28;45782;-64
2023/05/24 00:54:25;;;;;;;;;3.33;3.33;;;;;15.16;50.23;101745.69;2069986;28;45946;-62
2023/05/24 00:55:25;;;;;;;;;6.00;5.25;;;;;15.15;50.29;101744.81;2071640;28;46319;-64
2023/05/24 00:56:26;;;;;;;;;4.00;4.00;;;;;15.15;50.22;101741.28;2069270;28;45591;-63
2023/05/24 00:57:27;;;;;;;;;2.50;1.75;;;;;15.14;50.67;101739.53;2072049;28;45264;-62
2023/05/24 00:58:29;;;;;;;;;3.50;3.00;;;;;15.14;50.63;101739.53;2072552;28;45713;-64
2023/05/24 00:59:31;;;;;;;;;3.50;0.75;;;;;15.14;50.39;101737.72;2075853;28;46630;-64
2023/05/24 01:00:31;;;;;;;;;3.60;3.60;;;;;15.14;50.42;101734.16;2070966;28;45782;-63
2023/05/24 01:01:31;;;;;;;;;3.75;2.50;;;;;15.13;50.97;101729.75;2080490;28;44964;-63
2023/05/24 01:02:32;;;;;;;;;3.00;1.67;;;;;15.13;50.51;101732.41;2077766;28;46061;-63
2023/05/24 01:03:34;;;;;;;;;4.00;4.00;;;;;15.13;50.81;101735.09;2072184;28;46180;-63
2023/05/24 01:04:34;;;;;;;;;2.50;2.50;;;;;15.12;50.34;101739.56;2068577;28;46131;-63
2023/05/24 01:05:34;;;;;;;;;3.67;3.67;;;;;15.10;50.62;101736.03;2072734;28;46008;-63
2023/05/24 01:06:50;;;;;;;;;2.00;0.00;;;;;15.10;50.76;101729.78;2071752;28;45846;-62
2023/05/24 01:08:08;;;;;;;;;3.25;3.25;;;;;15.10;50.60;101740.50;2075684;28;46006;-63
2023/05/24 01:09:22;;;;;;;;;6.00;3.75;;;;;15.09;50.86;101736.06;2072725;28;46126;-64
2023/05/24 01:10:38;;;;;;;;;4.00;4.00;;;;;15.08;50.92;101740.53;2070941;28;46779;-62
2023/05/24 01:11:44;;;;;;;;;7.75;6.50;;;;;15.07;50.76;101741.44;2071584;28;46653;-63
2023/05/24 01:13:17;;;;;;;;;3.75;3.75;;;;;15.05;51.11;101743.28;2071304;28;47482;-63
2023/05/24 01:14:18;;;;;;;;;3.75;3.75;;;;;15.04;50.66;101744.19;2072607;28;45864;-64
2023/05/24 01:15:43;;;;;;;;;4.00;4.00;;;;;15.05;51.05;101737.06;2073538;28;45535;-64
2023/05/24 01:16:56;;;;;;;;;4.00;4.00;;;;;15.03;51.06;101734.44;2071141;28;45666;-63
2023/05/24 01:18:14;;;;;;;;;5.25;5.00;;;;;15.02;51.26;101736.22;2065110;28;47258;-64
2023/05/24 01:19:51;;;;;;;;;3.50;2.75;;;;;15.02;51.03;101738.03;2078711;28;45852;-63
2023/05/24 01:21:05;;;;;;;;;4.75;3.00;;;;;14.99;51.27;101747.00;2072433;28;46006;-63
2023/05/24 01:22:08;;;;;;;;;2.50;2.50;;;;;14.98;50.93;101742.53;2071755;28;46390;-63
2023/05/24 01:23:27;;;;;;;;;4.00;3.00;;;;;14.98;51.20;101750.56;2071986;28;46132;-64
2023/05/24 01:24:58;;;;;;;;;4.25;3.00;;;;;14.95;51.30;101745.28;2069060;28;45369;-63
2023/05/24 01:26:22;;;;;;;;;4.75;3.00;;;;;14.91;51.17;101746.28;2065231;28;45505;-66
2023/05/24 01:27:24;;;;;;;;;2.00;2.00;;;;;14.89;51.61;101741.91;2070116;28;45826;-64
2023/05/24 01:28:26;;;;;;;;;5.00;5.00;;;;;14.87;51.19;101736.59;2069749;28;45642;-63
2023/05/24 01:29:30;;;;;;;;;3.50;2.75;;;;;14.87;51.60;101735.72;2073321;28;46310;-63
2023/05/24 01:30:31;;;;;;;;;5.00;4.00;;;;;14.85;51.49;101740.19;2070810;28;46015;-63
2023/05/24 01:31:33;;;;;;;;;2.75;2.75;;;;;14.82;51.06;101737.59;2073420;28;46829;-61
2023/05/24 01:32:33;;;;;;;;;2.75;2.75;;;;;14.80;51.81;101737.63;2071493;28;46732;-64
2023/05/24 01:33:33;;;;;;;;;4.00;3.33;;;;;14.78;51.25;101738.59;2062774;28;45215;-63
2023/05/24 01:34:34;;;;;;;;;4.75;3.75;;;;;14.75;51.81;101742.22;2071581;28;45516;-63
2023/05/24 01:35:39;;;;;;;;;8.00;5.50;;;;;14.72;51.66;101736.91;2066101;28;46457;-64
2023/05/24 01:36:39;;;;;;;;;3.25;3.25;;;;;14.72;51.64;101739.59;2070621;28;46099;-63
2023/05/24 01:37:39;;;;;;;;;3.67;3.67;;;;;14.71;51.86;101748.50;2072419;28;46671;-63
2023/05/24 01:38:40;;;;;;;;;4.67;3.67;;;;;14.70;51.64;101749.44;2072753;28;47010;-65
2023/05/24 01:39:41;;;;;;;;;4.25;4.25;;;;;14.69;51.57;101753.91;2073200;28;46529;-63
2023/05/24 01:40:43;;;;;;;;;4.00;4.00;;;;;14.69;51.94;101753.03;2067798;28;46262;-64
2023/05/24 01:41:58;;;;;;;;;5.50;5.50;;;;;14.67;52.04;101752.19;2076170;28;45586;-64
2023/05/24 01:43:11;;;;;;;;;3.00;1.75;;;;;14.66;52.04;101758.44;2055826;28;45778;-62
2023/05/24 01:44:35;;;;;;;;;6.00;4.50;;;;;14.65;51.96;101765.56;2063323;28;46319;-64
2023/05/24 01:45:49;;;;;;;;;5.50;4.25;;;;;14.63;52.40;101756.72;2064672;28;46162;-62
2023/05/24 01:47:00;;;;;;;;;5.00;5.00;;;;;14.61;52.03;101755.88;2073169;28;45741;-62
2023/05/24 01:48:06;;;;;;;;;4.40;4.00;;;;;14.61;52.34;101761.22;2071421;28;46584;-62
2023/05/24 01:49:26;;;;;;;;;7.50;5.00;;;;;14.61;52.30;101757.63;2072276;28;45665;-62
2023/05/24 01:50:37;;;;;;;;;6.50;4.50;;;;;14.60;52.14;101758.56;2069012;28;45440;-64
2023/05/24 01:51:48;;;;;;;;;4.25;4.25;;;;;14.60;52.35;101750.53;2062258;28;45672;-61
2023/05/24 01:52:50;;;;;;;;;3.75;3.75;;;;;14.57;52.24;101751.50;2066199;28;47374;-62
2023/05/24 01:53:51;;;;;;;;;4.75;4.75;;;;;14.56;52.52;101755.06;2070734;28;46424;-63
2023/05/24 01:54:55;;;;;;;;;6.50;3.75;;;;;14.55;52.68;101747.97;2071586;28;45976;-62
2023/05/24 01:55:57;;;;;;;;;4.00;4.00;;;;;14.55;52.75;101752.44;2071258;28;45065;-61
2023/05/24 01:57:01;;;;;;;;;4.50;4.50;;;;;14.55;52.44;101747.97;2070098;28;46801;-63
2023/05/24 01:58:03;;;;;;;;;4.25;3.75;;;;;14.54;52.64;101759.59;2069681;28;46066;-63
2023/05/24 01:59:05;;;;;;;;;5.25;5.25;;;;;14.55;52.43;101763.13;2070876;28;46360;-63
2023/05/24 02:00:06;;;;;;;;;5.75;5.75;;;;;14.55;52.71;101760.47;2071127;28;46369;-64
2023/05/24 02:01:08;;;;;;;;;5.00;3.00;;;;;14.56;52.65;101767.56;2071283;28;46467;-64
2023/05/24 02:02:09;;;;;;;;;6.50;4.75;;;;;14.56;52.73;101764.88;2071216;28;45630;-62
2023/05/24 02:03:13;;;;;;;;;5.75;4.25;;;;;14.57;52.63;101761.31;2073312;28;45821;-61
2023/05/24 02:04:13;;;;;;;;;3.25;3.25;;;;;14.57;52.72;101755.97;2071662;28;45680;-64
2023/05/24 02:05:14;;;;;;;;;5.33;4.67;;;;;14.58;52.67;101755.03;2071929;28;45690;-64
2023/05/24 02:06:14;;;;;;;;;4.33;4.33;;;;;14.58;52.66;101753.25;2063645;28;45283;-63
2023/05/24 02:07:16;;;;;;;;;6.33;4.67;;;;;14.57;52.54;101753.28;2063970;28;45945;-65
2023/05/24 02:08:16;;;;;;;;;4.00;3.25;;;;;14.54;52.58;101753.38;2074164;28;46830;-64
2023/05/24 02:09:16;;;;;;;;;3.67;3.67;;;;;14.54;52.41;101764.94;2071168;28;46639;-63
2023/05/24 02:10:17;;;;;;;;;3.33;3.33;;;;;14.52;52.65;101765.88;2070689;28;45548;-63
2023/05/24 02:11:17;;;;;;;;;5.67;5.67;;;;;14.49;52.66;101752.59;2072355;28;45445;-63
2023/05/24 02:12:18;;;;;;;;;5.00;4.00;;;;;14.48;52.66;101765.03;2071515;28;46068;-63
2023/05/24 02:13:18;;;;;;;;;6.67;5.33;;;;;14.48;52.77;101762.38;2070974;28;45587;-62
2023/05/24 02:14:19;;;;;;;;;3.67;3.67;;;;;14.47;52.64;101755.28;2070373;28;46832;-63
2023/05/24 02:15:20;;;;;;;;;6.00;5.00;;;;;14.48;52.99;101765.03;2080432;28;45055;-62
2023/05/24 02:16:22;;;;;;;;;4.00;3.75;;;;;14.47;52.87;101760.59;2070464;28;46187;-63
2023/05/24 02:17:25;;;;;;;;;6.75;6.00;;;;;14.45;52.83;101753.53;2072012;28;46091;-63
2023/05/24 02:18:26;;;;;;;;;6.00;4.25;;;;;14.44;52.83;101758.00;2071471;28;46581;-63
2023/05/24 02:19:26;;;;;;;;;5.67;5.00;;;;;14.42;52.98;101752.66;2073031;28;44998;-62
2023/05/24 02:20:29;;;;;;;;;4.67;4.00;;;;;14.42;53.33;101758.00;2069580;28;47014;-63
2023/05/24 02:21:31;;;;;;;;;4.75;4.25;;;;;14.42;53.12;101758.00;2073433;28;45934;-63
2023/05/24 02:22:31;;;;;;;;;8.50;5.25;;;;;14.42;53.07;101757.13;2068563;28;45307;-61
2023/05/24 02:23:32;;;;;;;;;3.67;3.67;;;;;14.42;52.93;101758.00;2072416;28;45512;-62
2023/05/24 02:24:32;;;;;;;;;4.00;4.00;;;;;14.41;53.04;101753.59;2069892;28;45549;-63
2023/05/24 02:25:32;;;;;;;;;5.00;4.33;;;;;14.40;53.20;101756.28;2072723;28;45440;-62
2023/05/24 02:26:33;;;;;;;;;4.33;4.33;;;;;14.40;53.32;101756.28;2070054;28;45795;-64
2023/05/24 02:27:33;;;;;;;;;7.67;4.67;;;;;14.40;53.42;101758.97;2072364;28;45540;-63
2023/05/24 02:28:33;;;;;;;;;3.67;3.33;;;;;14.38;53.09;101753.66;2070784;28;46096;-63
2023/05/24 02:29:34;;;;;;;;;5.00;5.00;;;;;14.37;53.06;101751.91;2072390;28;46495;-63
2023/05/24 02:30:34;;;;;;;;;2.67;2.67;;;;;14.36;53.28;101755.50;2067022;28;46281;-63
2023/05/24 02:31:35;;;;;;;;;4.33;4.00;;;;;14.34;53.46;101751.94;2072188;28;46163;-62
2023/05/24 02:32:35;;;;;;;;;7.00;6.00;;;;;14.32;53.50;101755.56;2066308;28;46514;-63
2023/05/24 02:33:35;;;;;;;;;5.00;5.00;;;;;14.32;53.35;101755.56;2072304;28;46686;-61
2023/05/24 02:34:36;;;;;;;;;4.25;4.25;;;;;14.28;53.38;101752.09;2070344;28;45504;-64
2023/05/24 02:35:36;;;;;;;;;4.75;4.25;;;;;14.27;53.23;101747.66;2072796;28;45059;-63
2023/05/24 02:36:36;;;;;;;;;6.67;4.00;;;;;14.26;53.60;101751.25;2069563;28;45050;-62
2023/05/24 02:37:37;;;;;;;;;7.33;6.33;;;;;14.26;53.36;101750.38;2072549;28;45476;-65
2023/05/24 02:38:38;;;;;;;;;3.33;3.33;;;;;14.25;53.72;101745.94;2071388;28;45507;-64
2023/05/24 02:39:39;;;;;;;;;5.75;4.00;;;;;14.24;53.32;101752.19;2072403;28;45613;-63
2023/05/24 02:40:40;;;;;;;;;5.00;3.00;;;;;14.23;53.37;101748.63;2070452;28;45893;-62
2023/05/24 02:41:40;;;;;;;;;4.25;4.25;;;;;14.22;53.64;101748.66;2072310;28;47906;-61
2023/05/24 02:42:40;;;;;;;;;4.00;4.00;;;;;14.21;53.70;101754.91;2070932;28;45580;-63
2023/05/24 02:43:41;;;;;;;;;4.00;4.00;;;;;14.20;53.69;101746.00;2072339;28;45154;-64
2023/05/24 02:44:42;;;;;;;;;3.80;3.80;;;;;14.20;53.56;101740.66;2070527;28;46179;-61
2023/05/24 02:45:42;;;;;;;;;5.00;5.00;;;;;14.20;53.90;101745.13;2072434;28;46234;-63
2023/05/24 02:46:42;;;;;;;;;8.00;4.50;;;;;14.20;53.85;101745.13;2070951;28;45677;-66
2023/05/24 02:47:43;;;;;;;;;5.00;5.00;;;;;14.20;53.85;101746.00;2072957;28;45468;-64
2023/05/24 02:48:43;;;;;;;;;6.25;6.25;;;;;14.19;53.77;101736.25;2077908;28;45640;-64
2023/05/24 02:49:43;;;;;;;;;5.00;4.00;;;;;14.20;53.96;101739.78;2078853;28;46854;-65
2023/05/24 02:50:44;;;;;;;;;5.00;5.00;;;;;14.21;53.94;101736.22;2071409;28;45930;-64
2023/05/24 02:51:44;;;;;;;;;3.75;3.75;;;;;14.22;54.02;101740.63;2071435;28;46317;-64
2023/05/24 02:52:44;;;;;;;;;5.25;5.00;;;;;14.21;53.78;101737.09;2070984;28;45090;-65
2023/05/24 02:53:45;;;;;;;;;8.50;5.25;;;;;14.21;53.85;101741.53;2065576;28;46272;-64
2023/05/24 02:54:45;;;;;;;;;4.75;3.50;;;;;14.21;53.99;101733.53;2071284;28;45585;-65
2023/05/24 02:55:46;;;;;;;;;5.25;4.00;;;;;14.19;53.88;101741.59;2071141;28;45815;-63
2023/05/24 02:56:46;;;;;;;;;4.00;4.00;;;;;14.18;54.23;101738.94;2070450;28;45229;-63
2023/05/24 02:57:47;;;;;;;;;2.75;2.00;;;;;14.18;53.94;101736.28;2072746;28;45154;-61
2023/05/24 02:58:49;;;;;;;;;6.00;6.00;;;;;14.17;54.12;101742.53;2071813;28;46075;-64
2023/05/24 02:59:49;;;;;;;;;6.20;6.20;;;;;14.16;53.99;101738.97;2076165;28;46000;-65
2023/05/24 03:00:50;;;;;;;;;9.00;7.75;;;;;14.16;54.04;101733.66;2076960;28;46657;-63
2023/05/24 03:01:50;;;;;;;;;7.75;6.25;;;;;14.15;54.04;101734.56;2078530;28;45309;-62
2023/05/24 03:02:51;;;;;;;;;6.00;4.75;;;;;14.14;54.12;101727.47;2071851;28;45869;-64
2023/05/24 03:03:51;;;;;;;;;5.00;5.00;;;;;14.13;54.37;101725.72;2070134;28;47336;-62
2023/05/24 03:04:51;;;;;;;;;6.25;4.00;;;;;14.12;54.13;101722.16;2071747;28;46796;-62
2023/05/24 03:05:52;;;;;;;;;1.00;1.00;;;;;14.12;53.96;101722.16;2070955;28;46499;-62
2023/05/24 03:06:52;;;;;;;;;3.25;2.25;;;;;14.12;54.38;101722.16;2070723;28;46248;-64
2023/05/24 03:07:52;;;;;;;;;7.25;6.00;;;;;14.11;54.14;101725.75;2074665;28;46813;-64
2023/05/24 03:08:53;;;;;;;;;7.50;6.50;;;;;14.12;54.31;101721.28;2070160;28;45935;-64
2023/05/24 03:09:53;;;;;;;;;6.00;3.00;;;;;14.10;54.29;101729.31;2070518;28;45568;-63
2023/05/24 03:10:54;;;;;;;;;5.00;5.00;;;;;14.10;54.00;101733.75;2071181;28;46225;-64
2023/05/24 03:11:54;;;;;;;;;6.50;5.00;;;;;14.09;54.28;101726.66;2070258;28;46689;-65
2023/05/24 03:12:54;;;;;;;;;5.50;5.50;;;;;14.08;54.30;101732.91;2070767;28;45233;-64
2023/05/24 03:13:55;;;;;;;;;7.50;6.75;;;;;14.07;54.38;101732.03;2070094;28;45971;-66
2023/05/24 03:14:55;;;;;;;;;5.75;4.75;;;;;14.07;54.54;101726.69;2071973;28;45629;-63
2023/05/24 03:15:56;;;;;;;;;6.25;6.00;;;;;14.08;54.45;101725.78;2070717;28;45867;-64
2023/05/24 03:16:56;;;;;;;;;6.75;6.00;;;;;14.08;54.39;101724.91;2070989;28;46305;-64
2023/05/24 03:17:56;;;;;;;;;3.75;3.75;;;;;14.07;54.49;101718.69;2077253;28;45139;-64
2023/05/24 03:18:58;;;;;;;;;8.50;6.75;;;;;14.08;54.20;101722.22;2071332;28;45382;-64
2023/05/24 03:20:00;;;;;;;;;6.20;6.20;;;;;14.07;54.23;101731.16;2070638;28;47120;-65
2023/05/24 03:21:00;;;;;;;;;7.40;7.40;;;;;14.07;54.44;101729.34;2072601;28;46353;-64
2023/05/24 03:22:00;;;;;;;;;7.00;5.75;;;;;14.05;54.53;101727.63;2069642;28;46412;-65
2023/05/24 03:23:00;;;;;;;;;4.50;4.00;;;;;14.04;54.34;101718.75;2071512;28;45946;-63
2023/05/24 03:24:01;;;;;;;;;4.75;4.75;;;;;14.03;54.42;101722.34;2073787;28;45145;-62
2023/05/24 03:25:01;;;;;;;;;5.50;5.50;;;;;14.03;54.51;101721.47;2069884;28;45611;-61
2023/05/24 03:26:01;;;;;;;;;5.25;5.00;;;;;14.02;54.39;101717.91;2075645;28;46077;-62
2023/05/24 03:27:02;;;;;;;;;5.25;4.25;;;;;14.05;54.56;101730.31;2067413;28;46622;-61
2023/05/24 03:28:02;;;;;;;;;4.50;4.50;;;;;14.03;54.46;101730.34;2072514;28;45736;-62
2023/05/24 03:29:03;;;;;;;;;7.00;7.00;;;;;14.03;54.73;101727.66;2070287;28;45552;-62
2023/05/24 03:30:05;;;;;;;;;6.25;5.50;;;;;14.03;54.57;101722.34;2072018;28;45128;-63
2023/05/24 03:31:05;;;;;;;;;6.60;4.80;;;;;14.05;54.73;101727.63;2072280;28;46349;-62
2023/05/24 03:32:06;;;;;;;;;7.25;4.00;;;;;14.04;54.62;101732.09;2072838;28;46144;-62
2023/05/24 03:33:06;;;;;;;;;5.00;5.00;;;;;14.02;54.86;101720.56;2072449;28;45867;-62
2023/05/24 03:34:06;;;;;;;;;4.75;3.50;;;;;14.01;54.93;101724.16;2064691;28;46517;-62
2023/05/24 03:35:10;;;;;;;;;4.00;4.00;;;;;14.01;54.69;101725.94;2067085;28;46313;-63
2023/05/24 03:36:11;;;;;;;;;7.20;7.20;;;;;14.00;54.76;101729.53;2071667;28;46376;-62
2023/05/24 03:37:11;;;;;;;;;4.00;4.00;;;;;13.99;55.04;101725.09;2072414;28;45960;-63
2023/05/24 03:38:11;;;;;;;;;4.75;4.75;;;;;13.97;54.63;101727.78;2072904;28;45780;-64
2023/05/24 03:39:12;;;;;;;;;8.00;7.50;;;;;13.98;54.78;101731.34;2072250;28;46406;-64
2023/05/24 03:40:12;;;;;;;;;5.75;5.00;;;;;13.98;54.91;101726.00;2072460;28;46068;-63
2023/05/24 03:41:12;;;;;;;;;8.00;5.50;;;;;13.98;54.86;101729.56;2071481;28;46772;-64
2023/05/24 03:42:13;;;;;;;;;7.00;5.75;;;;;13.97;54.53;101732.22;2071782;28;47985;-64
2023/05/24 03:43:13;;;;;;;;;4.25;4.25;;;;;13.97;54.92;101738.44;2071534;28;45521;-64
2023/05/24 03:44:13;;;;;;;;;7.50;6.25;;;;;13.96;54.76;101735.81;2071948;28;46285;-65
2023/05/24 03:45:14;;;;;;;;;4.75;4.00;;;;;13.96;54.93;101735.81;2071756;28;46699;-65
2023/05/24 03:46:14;;;;;;;;;5.25;5.25;;;;;13.96;54.84;101738.47;2072093;28;46906;-67
2023/05/24 03:47:15;;;;;;;;;8.00;6.25;;;;;13.91;54.69;101733.25;2071859;28;47249;-66
2023/05/24 03:48:15;;;;;;;;;8.00;6.00;;;;;13.89;55.19;101732.41;2071898;28;46202;-64
2023/05/24 03:49:15;;;;;;;;;6.75;6.75;;;;;13.90;55.17;101731.50;2072137;28;45850;-63
2023/05/24 03:50:16;;;;;;;;;7.00;5.75;;;;;13.90;55.26;101726.16;2071743;28;45130;-63
2023/05/24 03:51:16;;;;;;;;;4.75;4.75;;;;;13.88;55.12;101725.31;2072209;28;45419;-63
2023/05/24 03:52:17;;;;;;;;;7.25;6.25;;;;;13.88;55.19;101735.09;2072043;28;46936;-63
2023/05/24 03:53:17;;;;;;;;;8.00;8.00;;;;;13.88;55.15;101729.75;2072101;28;45597;-63
2023/05/24 03:54:17;;;;;;;;;7.00;6.00;;;;;13.87;54.98;101733.34;2071806;28;45945;-62
2023/05/24 03:55:18;;;;;;;;;5.00;5.00;;;;;13.87;55.35;101731.56;2071912;28;45940;-64
2023/05/24 03:56:18;;;;;;;;;5.00;5.00;;;;;13.88;55.20;101733.31;2072128;28;45777;-63
2023/05/24 03:57:18;;;;;;;;;6.00;5.00;;;;;13.86;55.01;101729.81;2072030;28;44988;-63
2023/05/24 03:58:19;;;;;;;;;8.00;7.00;;;;;13.86;55.13;101732.47;2071814;28;46336;-62
2023/05/24 03:59:20;;;;;;;;;4.00;4.00;;;;;13.84;55.33;101736.94;2071901;28;45725;-64
2023/05/24 04:00:21;;;;;;;;;8.00;5.60;;;;;13.85;55.26;101730.72;2071202;28;45173;-63
2023/05/24 04:01:21;;;;;;;;;9.00;7.00;;;;;13.85;55.38;101741.38;2071916;28;45666;-62
2023/05/24 04:02:21;;;;;;;;;6.75;4.75;;;;;13.83;55.18;101744.06;2079195;28;45054;-62
2023/05/24 04:03:21;;;;;;;;;5.75;5.25;;;;;13.86;54.77;101739.59;2079287;28;46417;-64
2023/05/24 04:04:22;;;;;;;;;5.75;4.75;;;;;13.84;55.11;101745.81;2071894;28;45915;-64
2023/05/24 04:05:28;;;;;;;;;13.00;11.00;;;;;13.83;55.03;101738.72;2071424;28;46718;-65
2023/05/24 04:06:29;;;;;;;;;7.60;7.60;;;;;13.84;55.30;101742.25;2071795;28;45768;-64
2023/05/24 04:07:32;;;;;;;;;4.75;4.75;;;;;13.83;55.46;101743.19;2071864;28;46202;-63
2023/05/24 04:08:33;;;;;;;;;7.40;6.80;;;;;13.83;55.13;101741.38;2071551;28;45322;-64
2023/05/24 04:09:33;;;;;;;;;8.00;6.75;;;;;13.82;55.34;101736.09;2078313;28;45555;-63
2023/05/24 04:10:33;;;;;;;;;5.50;4.00;;;;;13.81;55.45;101737.88;2073675;28;46141;-65
2023/05/24 04:11:35;;;;;;;;;5.75;5.75;;;;;13.81;55.01;101740.53;2074083;28;45573;-64
2023/05/24 04:12:35;;;;;;;;;7.60;6.00;;;;;13.81;55.18;101745.00;2076331;28;45637;-65
2023/05/24 04:13:35;;;;;;;;;5.75;5.25;;;;;13.81;55.15;101739.66;2087690;28;45563;-65
2023/05/24 04:14:36;;;;;;;;;8.75;6.00;;;;;13.81;55.31;101734.31;2085419;28;46553;-66
2023/05/24 04:15:36;;;;;;;;;4.75;4.50;;;;;13.81;55.44;101745.88;2074665;28;45660;-64
2023/05/24 04:16:38;;;;;;;;;8.00;8.00;;;;;13.81;55.20;101745.88;2079832;28;45755;-66
2023/05/24 04:17:38;;;;;;;;;6.40;5.60;;;;;13.81;55.01;101745.00;2080093;28;45655;-64
2023/05/24 04:18:39;;;;;;;;;7.00;7.00;;;;;13.80;55.46;101744.13;2078736;28;45566;-65
2023/05/24 04:19:39;;;;;;;;;7.00;6.25;;;;;13.80;55.17;101752.13;2070445;28;45018;-65
2023/05/24 04:20:40;;;;;;;;;5.75;5.00;;;;;13.81;55.29;101748.53;2069378;28;45684;-64
2023/05/24 04:21:40;;;;;;;;;7.00;7.00;;;;;13.81;55.30;101756.53;2067550;28;45083;-65
2023/05/24 04:22:40;;;;;;;;;6.00;6.00;;;;;13.80;55.21;101752.13;2070178;28;46079;-65
2023/05/24 04:23:41;;;;;;;;;6.00;6.00;;;;;13.79;55.08;101746.81;2070464;28;46900;-65
2023/05/24 04:24:41;;;;;;;;;5.00;4.00;;;;;13.78;54.91;101751.28;2070681;28;46902;-65
2023/05/24 04:25:42;;;;;;;;;7.50;4.50;;;;;13.79;55.19;101741.47;2070343;28;46041;-67
2023/05/24 04:26:42;;;;;;;;;5.75;4.75;;;;;13.79;55.10;101745.03;2069128;28;46875;-64
2023/05/24 04:27:43;;;;;;;;;5.75;5.75;;;;;13.80;55.07;101745.91;2070682;28;48116;-64
2023/05/24 04:28:47;;;;;;;;;6.60;6.60;;;;;13.80;55.21;101752.13;2070227;28;46732;-66
2023/05/24 04:29:48;;;;;;;;;6.40;5.00;;;;;13.82;55.30;101760.09;2071210;28;45973;-65
2023/05/24 04:30:50;;;;;;;;;7.00;5.60;;;;;13.81;55.30;101763.66;2070460;28;46478;-64
2023/05/24 04:31:51;;;;;;;;;6.80;5.60;;;;;13.81;55.44;101753.00;2070967;28;45841;-65
2023/05/24 04:32:52;;;;;;;;;5.75;4.00;;;;;13.81;55.22;101763.66;2070843;28;45869;-65
2023/05/24 04:33:52;;;;;;;;;6.40;5.20;;;;;13.81;55.11;101761.88;2071117;28;46133;-65
2023/05/24 04:34:53;;;;;;;;;5.50;5.50;;;;;13.79;55.23;101761.03;2070505;28;46753;-63
2023/05/24 04:35:53;;;;;;;;;5.75;4.25;;;;;13.81;55.43;101766.34;2070771;28;46824;-65
2023/05/24 04:36:54;;;;;;;;;6.00;5.00;;;;;13.82;55.37;101766.31;2070839;28;46811;-65
2023/05/24 04:37:55;;;;;;;;;7.60;6.60;;;;;13.81;55.20;101769.88;2070891;28;45784;-65
2023/05/24 04:38:56;;;;;;;;;4.50;4.50;;;;;13.82;55.43;101766.31;2070321;28;45991;-66
2023/05/24 04:39:56;;;;;;;;;6.40;5.20;;;;;13.81;55.47;101777.00;2071174;28;46139;-64
2023/05/24 04:41:00;;;;;;;;;6.50;5.25;;;;;13.81;55.24;101774.34;2071965;28;45802;-65
2023/05/24 04:42:01;;;;;;;;;6.00;6.00;;;;;13.79;55.28;101781.50;2072360;28;46024;-65
2023/05/24 04:43:01;;;;;;;;;9.67;7.00;;;;;13.78;55.32;101780.63;2072253;28;45631;-65
2023/05/24 04:44:01;;;;;;;;;6.00;5.50;;;;;13.78;55.16;101780.63;2072357;28;46309;-64
2023/05/24 04:45:02;;;;;;;;;6.00;4.00;;;;;13.78;55.39;101788.63;2072539;28;46278;-66
2023/05/24 04:46:02;;;;;;;;;8.75;5.75;;;;;13.77;55.52;101778.88;2080237;28;46773;-63
2023/05/24 04:47:03;;;;;;;;;7.50;7.50;;;;;13.78;55.26;101785.97;2079824;28;46511;-64
2023/05/24 04:48:03;;;;;;;;;6.00;6.00;;;;;13.78;55.31;101779.75;2073143;28;45827;-66
2023/05/24 04:49:04;;;;;;;;;6.25;5.50;;;;;13.77;55.39;101783.31;2071915;28;45898;-64